createdAt,value
2018-02-10T00:01:35.433Z,22.53
2018-02-10T00:04:03.204Z,23.00
2018-02-10T00:06:30.664Z,20.47
2018-02-10T00:08:58.469Z,21.40
2018-02-10T00:11:25.928Z,21.00
2018-02-10T00:13:53.641Z,21.93
2018-02-10T00:16:21.218Z,20.80
2018-02-10T00:18:48.886Z,19.97
2018-02-10T00:21:16.393Z,20.57
2018-02-10T00:23:43.997Z,20.20
2018-02-10T00:26:11.452Z,20.27
2018-02-10T00:28:38.913Z,21.47
2018-02-10T00:31:07.257Z,20.27
2018-02-10T00:33:34.728Z,19.67
2018-02-10T00:36:02.296Z,21.13
2018-02-10T00:38:30.068Z,18.90
2018-02-10T00:40:57.549Z,19.70
2018-02-10T00:43:25.235Z,19.30
2018-02-10T00:45:52.754Z,19.87
2018-02-10T00:48:20.219Z,19.27
2018-02-10T00:50:47.972Z,19.23
2018-02-10T00:53:15.433Z,19.37
2018-02-10T00:55:42.908Z,19.27
2018-02-10T00:58:10.661Z,18.83
2018-02-10T01:00:38.500Z,19.53
2018-02-10T01:03:06.065Z,18.40
2018-02-10T01:05:33.520Z,18.43
2018-02-10T01:08:01.097Z,19.03
2018-02-10T01:10:28.733Z,18.77
2018-02-10T01:12:56.205Z,18.93
2018-02-10T01:15:23.680Z,18.87
2018-02-10T01:17:51.233Z,18.63
2018-02-10T01:20:19.004Z,17.73
2018-02-10T01:22:46.778Z,18.30
2018-02-10T01:25:14.532Z,17.27
2018-02-10T01:27:42.164Z,18.80
2018-02-10T01:30:09.624Z,18.07
2018-02-10T01:32:37.126Z,17.73
2018-02-10T01:35:05.132Z,17.43
2018-02-10T01:37:32.614Z,18.50
2018-02-10T01:40:00.210Z,17.97
2018-02-10T01:42:29.371Z,18.03
2018-02-10T01:44:56.908Z,17.17
2018-02-10T01:47:24.591Z,17.50
2018-02-10T01:50:03.933Z,18.00
2018-02-10T01:52:31.612Z,17.57
2018-02-10T01:54:59.082Z,17.80
2018-02-10T01:57:26.850Z,16.90
2018-02-10T01:59:54.624Z,17.93
2018-02-10T02:02:22.080Z,16.90
2018-02-10T02:04:49.552Z,18.13
2018-02-10T02:07:17.044Z,17.13
2018-02-10T02:09:44.548Z,17.00
2018-02-10T02:12:12.220Z,17.53
2018-02-10T02:14:39.690Z,16.60
2018-02-10T02:17:07.428Z,16.60
2018-02-10T02:19:34.894Z,17.77
2018-02-10T02:22:02.523Z,16.90
2018-02-10T02:24:30.124Z,17.20
2018-02-10T02:26:57.586Z,17.13
2018-02-10T02:29:25.349Z,16.80
2018-02-10T02:31:52.830Z,17.57
2018-02-10T02:34:20.304Z,16.73
2018-02-10T02:36:47.765Z,17.53
2018-02-10T02:39:15.368Z,16.97
2018-02-10T02:41:42.857Z,17.23
2018-02-10T02:44:10.332Z,16.03
2018-02-10T02:46:37.785Z,16.13
2018-02-10T02:49:05.310Z,16.33
2018-02-10T02:51:32.981Z,16.57
2018-02-10T02:54:00.441Z,16.17
2018-02-10T02:56:27.990Z,16.27
2018-02-10T02:58:55.761Z,15.80
2018-02-10T03:01:23.249Z,16.27
2018-02-10T03:03:50.972Z,16.13
2018-02-10T03:06:18.433Z,16.57
2018-02-10T03:08:45.900Z,16.47
2018-02-10T03:11:13.376Z,16.40
2018-02-10T03:13:40.843Z,15.67
2018-02-10T03:16:08.310Z,16.00
2018-02-10T03:18:35.960Z,15.60
2018-02-10T03:21:03.460Z,16.13
2018-02-10T03:23:30.929Z,15.63
2018-02-10T03:25:58.397Z,14.80
2018-02-10T03:28:26.173Z,15.23
2018-02-10T03:30:53.800Z,16.47
2018-02-10T03:33:21.269Z,15.73
2018-02-10T03:35:48.853Z,15.27
2018-02-10T03:38:16.633Z,15.67
2018-02-10T03:40:44.405Z,14.67
2018-02-10T03:43:12.318Z,14.90
2018-02-10T03:45:39.912Z,15.83
2018-02-10T03:48:07.388Z,15.00
2018-02-10T03:50:35.139Z,14.87
2018-02-10T03:53:02.896Z,15.57
2018-02-10T03:55:30.537Z,14.63
2018-02-10T03:57:58.030Z,14.87
2018-02-10T04:00:25.477Z,14.63
2018-02-10T04:02:52.944Z,15.80
2018-02-10T04:05:20.423Z,14.53
2018-02-10T04:07:47.874Z,14.70
2018-02-10T04:10:15.421Z,14.63
2018-02-10T04:12:42.888Z,14.00
2018-02-10T04:15:10.544Z,14.40
2018-02-10T04:17:38.009Z,13.80
2018-02-10T04:20:05.471Z,14.03
2018-02-10T04:22:32.934Z,15.03
2018-02-10T04:25:01.295Z,15.10
2018-02-10T04:27:28.814Z,14.07
2018-02-10T04:29:56.548Z,14.30
2018-02-10T04:32:24.073Z,15.20
2018-02-10T04:34:51.845Z,14.20
2018-02-10T04:37:19.304Z,14.27
2018-02-10T04:39:46.768Z,13.87
2018-02-10T04:42:14.561Z,13.90
2018-02-10T04:44:42.284Z,14.27
2018-02-10T04:47:09.744Z,13.80
2018-02-10T04:49:37.209Z,13.10
2018-02-10T04:52:04.986Z,14.40
2018-02-10T04:54:32.741Z,14.20
2018-02-10T04:57:00.369Z,14.30
2018-02-10T04:59:27.965Z,13.97
2018-02-10T05:01:55.416Z,14.17
2018-02-10T05:04:22.901Z,13.87
2018-02-10T05:06:50.568Z,12.73
2018-02-10T05:09:18.025Z,13.00
2018-02-10T05:11:45.554Z,13.03
2018-02-10T05:14:13.021Z,13.17
2018-02-10T05:16:40.479Z,13.27
2018-02-10T05:19:07.944Z,13.27
2018-02-10T05:21:35.559Z,12.87
2018-02-10T05:24:03.037Z,12.87
2018-02-10T05:26:30.577Z,12.80
2018-02-10T05:28:58.029Z,14.63
2018-02-10T05:31:25.536Z,13.43
2018-02-10T05:33:53.288Z,12.60
2018-02-10T05:36:20.756Z,13.50
2018-02-10T05:38:48.313Z,13.20
2018-02-10T05:41:15.773Z,12.67
2018-02-10T05:43:43.417Z,13.67
2018-02-10T05:46:11.200Z,12.77
2018-02-10T05:48:38.964Z,13.67
2018-02-10T05:51:06.433Z,13.63
2018-02-10T05:53:34.185Z,12.93
2018-02-10T05:56:01.674Z,13.83
2018-02-10T05:58:29.269Z,12.70
2018-02-10T06:00:56.826Z,13.03
2018-02-10T06:03:24.341Z,12.93
2018-02-10T06:05:51.814Z,11.97
2018-02-10T06:08:19.422Z,13.20
2018-02-10T06:10:47.002Z,12.30
2018-02-10T06:13:14.425Z,12.40
2018-02-10T06:15:41.959Z,13.97
2018-02-10T06:18:09.417Z,19.30
2018-02-10T06:20:36.957Z,19.70
2018-02-10T06:23:04.768Z,17.17
2018-02-10T06:25:32.258Z,16.80
2018-02-10T06:27:59.709Z,16.27
2018-02-10T06:30:27.168Z,16.33
2018-02-10T06:32:54.745Z,16.23
2018-02-10T06:35:22.517Z,16.30
2018-02-10T06:37:50.270Z,15.67
2018-02-10T06:40:18.040Z,14.57
2018-02-10T06:42:45.804Z,14.57
2018-02-10T06:45:13.426Z,15.07
2018-02-10T06:47:41.021Z,15.03
2018-02-10T06:50:08.477Z,18.13
2018-02-10T06:52:36.311Z,16.30
2018-02-10T06:55:04.401Z,17.03
2018-02-10T06:57:31.888Z,16.70
2018-02-10T07:00:00.141Z,16.03
2018-02-10T07:02:27.594Z,14.93
2018-02-10T07:04:55.246Z,15.13
2018-02-10T07:07:22.716Z,15.83
2018-02-10T07:09:50.303Z,15.87
2018-02-10T07:12:17.814Z,14.70
2018-02-10T07:14:45.525Z,15.70
2018-02-10T07:17:13.891Z,20.27
2018-02-10T07:19:41.349Z,19.80
2018-02-10T07:22:09.125Z,18.17
2018-02-10T07:24:37.462Z,20.57
2018-02-10T07:27:04.918Z,21.17
2018-02-10T07:29:32.377Z,17.83
2018-02-10T07:32:01.035Z,17.23
2018-02-10T07:34:28.509Z,16.47
2018-02-10T07:36:56.156Z,16.10
2018-02-10T07:39:24.382Z,16.60
2018-02-10T07:41:52.166Z,16.60
2018-02-10T07:44:20.098Z,15.57
2018-02-10T07:46:47.599Z,15.77
2018-02-10T07:49:15.077Z,17.40
